• Join FlightAware (Why Join?)
  • Login
  • US Flag 
04:23AM EDT


 

Airport Tracker/Info


-or-


 

Live Flight TrackerFlight Track Log ✈ JBU1189 ✈ 30-Jan-2014 ✈ KBOS - KDCA

Flight Track Log - Related Links

Times and Time Zones

All times are in EST time to prevent confusion due to time zone crossing. See the JBU1189 flight status page for this flight to view local times or setup timezone preferences in your user account.

Time Position Orientation Groundspeed Altitude Reporting Facility
EST Latitude Longitude Course Direction KTS MPH feet Rate Location/Type
09:03PM 42.3500 -71.0167 234° Southwest 131 151 1,000  Level KA90
09:05PM 42.3242 -70.8633 103° East 285 328 8,200 3,000 Climbing Boston Center
09:06PM 42.3172 -70.7542 95° East 305 351 11,200 2,640 Climbing Boston Center
09:07PM 42.0445 -71.6050 235° Southwest  Level Estimated
09:07PM 42.2372 -70.7325 169° South 325 374 13,700  Level Boston Center
09:08PM 41.9804 -71.7240 234° Southwest  Level Estimated
09:08PM 42.2022 -70.8503 248° West 321 369 17,500  Level Boston Center
09:09PM 42.1892 -70.9569 261° West 322 371 20,100 2,520 Climbing Boston Center
09:10PM 42.1719 -71.0775 259° West 326 375 22,500 2,460 Climbing Boston Center
09:11PM 42.1539 -71.2169 260° West 342 394 25,200 2,160 Climbing Boston Center
09:12PM 42.1356 -71.3494 259° West 355 409 27,000 1,800 Climbing Boston Center
09:13PM 42.1158 -71.4856 259° West 366 421 28,900 1,980 Climbing Boston Center
09:14PM 42.0975 -71.6208 260° West 367 422 31,100 1,500 Climbing Boston Center
09:15PM 42.0789 -71.7569 260° West 367 422 32,000 420 Climbing Boston Center
09:16PM 42.0467 -71.8967 253° West 386 444 32,000  Level Boston Center
09:17PM 41.9911 -72.0214 239° Southwest 387 445 32,000  Level Boston Center
09:18PM 41.9353 -72.1478 239° Southwest 389 448 32,000  Level Boston Center
09:19PM 41.8792 -72.2725 239° Southwest 390 449 32,000  Level Boston Center
09:20PM 41.8228 -72.3978 239° Southwest 390 449 32,000  Level Boston Center
09:21PM 41.7667 -72.5225 239° Southwest 390 449 32,000  Level Boston Center
09:22PM 41.7117 -72.6428 239° Southwest 386 444 32,000  Level Boston Center
09:23PM 41.6569 -72.7611 238° Southwest 378 435 32,000  Level Boston Center
09:24PM 41.6025 -72.8831 239° Southwest 380 437 32,000  Level Boston Center
09:25PM 41.5472 -73.0022 238° Southwest 379 436 32,000  Level Boston Center
09:26PM 41.4886 -73.1319 239° Southwest 381 438 32,000 -180 Level Boston Center
09:27PM 41.4342 -73.2506 239° Southwest 380 437 31,700 -600 Descending Boston Center
09:28PM 41.3792 -73.3678 238° Southwest 379 436 30,900 -780 Descending Boston Center
09:29PM 41.3233 -73.4875 238° Southwest 380 437 30,200 -480 Descending Boston Center
09:30PM 41.2550 -73.6267 237° Southwest 380 437 30,000 -120 Descending Boston Center
09:32PM 41.1736 -73.7675 233° Southwest 387 445 30,000  Level New York Center
09:33PM 41.1083 -73.8775 232° Southwest 387 445 30,000  Level New York Center
09:34PM 41.0428 -73.9844 231° Southwest 382 440 30,000  Level New York Center
09:35PM 40.9772 -74.0967 232° Southwest 387 445 30,000  Level New York Center
09:36PM 40.9011 -74.2136 229° Southwest 387 445 30,000 -420 Level New York Center
09:37PM 40.8375 -74.3231 232° Southwest 387 445 29,200 -1,020 Descending New York Center
09:38PM 40.7736 -74.4292 232° Southwest 387 445 28,000 -600 Descending New York Center
09:39PM 40.7081 -74.5325 230° Southwest 387 445 28,000  Level New York Center
09:40PM 40.6464 -74.6358 232° Southwest 381 438 28,000  Level New York Center
09:41PM 40.5822 -74.7414 231° Southwest 381 438 28,000  Level New York Center
09:42PM 40.5144 -74.8411 228° Southwest 376 433 28,000  Level New York Center
09:43PM 40.4442 -74.9408 227° Southwest 376 433 28,000  Level New York Center
09:44PM 40.3761 -75.0375 227° Southwest 376 433 28,000  Level New York Center
09:45PM 40.3061 -75.1311 226° Southwest 371 427 28,000 -120 Level New York Center
09:46PM 40.2442 -75.2222 228° Southwest 371 427 27,800 -1,080 Descending New York Center
09:47PM 40.1781 -75.3158 227° Southwest 371 427 25,900 -1,860 Descending New York Center
09:48PM 40.1100 -75.4092 226° Southwest 371 427 24,100 -1,800 Descending New York Center
09:49PM 40.0458 -75.4997 227° Southwest 360 414 22,300 -1,080 Descending New York Center
09:50PM 39.9839 -75.5878 227° Southwest 350 403 22,000 -180 Descending New York Center
09:51PM 39.9258 -75.6839 232° Southwest 345 397 22,000  Level New York Center
09:52PM 39.8636 -75.7742 228° Southwest 340 391 22,000  Level New York Center
09:53PM 39.8075 -75.8675 232° Southwest 340 391 22,000 -1,140 Level New York Center
09:55PM 39.6667 -76.0833 230° Southwest 320 368 18,400 -1,620 Descending Potomac TRACON
09:56PM 39.6167 -76.1500 226° Southwest 316 364 17,100 -1,620 Descending Potomac TRACON
09:57PM 39.5667 -76.2333 232° Southwest 309 356 15,400 -1,740 Descending Potomac TRACON
09:58PM 39.5167 -76.3167 232° Southwest 307 353 14,000 -1,680 Descending Potomac TRACON
09:59PM 39.4500 -76.4000 224° Southwest 300 345 12,100 -1,140 Descending Potomac TRACON
10:00PM 39.3833 -76.4667 218° Southwest 299 344 11,500 -780 Descending Potomac TRACON
10:01PM 39.3167 -76.5333 218° Southwest 297 342 10,600 -780 Descending Potomac TRACON
10:02PM 39.2500 -76.5833 210° Southwest 299 344 10,000 -300 Descending Potomac TRACON
10:03PM 39.1833 -76.6500 218° Southwest 301 346 10,000  Level Potomac TRACON
10:04PM 39.1500 -76.7333 243° Southwest 293 337 10,000 -120 Level Potomac TRACON
10:05PM 39.1167 -76.8333 247° West 261 300 9,800 -1,140 Descending Potomac TRACON
10:06PM 39.1000 -76.9167 256° West 240 276 7,800 -2,100 Descending Potomac TRACON
10:07PM 39.0667 -76.9833 237° Southwest 240 276 5,900 -1,860 Descending Potomac TRACON
10:08PM 39.0500 -77.0667 256° West 225 259 4,300 -1,440 Descending Potomac TRACON
10:09PM 39.0167 -77.1167 229° Southwest 236 272 3,000 -840 Descending Potomac TRACON
10:10PM 38.9667 -77.1333 195° South 195 224 2,700 -780 Descending Potomac TRACON
10:11PM 38.9167 -77.1000 153° Southeast 169 194 1,500 -900 Descending Potomac TRACON
10:12PM 38.9000 -77.0667 123° Southeast 121 139 900 -600 Descending Potomac TRACON
10:13PM 38.8667 -77.0333 142° Southeast 118 136 400 -540 Descending Potomac TRACON
10:15PM 38.8519 -77.0377 169° South  Level Estimated
10:22PM 38.8500 -77.0333 343° North  Level FlightAware Approximate